Hovedside
METAR-TAF:

METAR-TAF

Lufthavner :

Honningsvåg, Norge

Honningsvåg lufthavn

breddegrad: 71-01N, lengdegrad: 025-59E, høyde over havet: 1 m

Gjeldene værobservasjon

Denne rapporten ble laget for 48 minutter siden, klokken 05:20 UTC
Vind 21 kt fra Nordvest
Temperatur 1°C
Luftfuktighet 80%
Trykk 1005 hPa
Sikt 10 km eller mer
Spredte skyer i en høyde av 1700 ft
Brutte skyer i en høyde av 5100 ft
lette snøbyger, regn

METAR: ENHV 240520Z 31021KT 9999 -SHSNRA SCT017 BKN051 01/M02 Q1005

Tid: 07:08 (06:08 UTC)


TAF: fraværende

Værobservasjoner og værvarsel for over 4000 flyplasser (METAR- og TAF-rapporter).

Tilgjengelige stasjoner er representert av de røde og gule prikkene på kartet.

Hold musepekeren over prikken for å se navnet på stasjonen.

Klikk så for å se værobservasjoner og -varsler.

For å forandre kartet kan du klikke på den grønne knappen med svart kryss for å zoome inn, på den grønne knappen med strek for å zoome ut, eller på de grønne pilene for å se tilstøtende kart.


METAR-TAF: